Time;durP1;ratioP1;P1;durP2;ratioP2;P2;SDS_P1;SDS_P2;PMS_P1;PMS_P2;Temp;Humidity;BMP_temperature;BMP_pressure;BME280_temperature;BME280_humidity;BME280_pressure;Samples;Min_cycle;Max_cycle;Signal;HPM_P1;HPM_P2
2022/02/19 00:00:12;;;;;;;;;;;;;;;12.95;47.11;99794.06;1018362;29;721;-67
2022/02/19 00:01:03;;;;;;;;;;;;;;;12.95;47.88;99810.13;1018255;29;1050;-67
2022/02/19 00:01:53;;;;;;;;;;;;;;;12.96;48.14;99802.94;1020690;29;1852;-67
2022/02/19 00:02:44;;;;;;;;;;;;;;;12.95;47.28;99793.22;1022072;29;755;-66
2022/02/19 00:03:34;;;;;;;;;;;;;;;12.95;47.37;99798.59;1019750;29;1550;-68
2022/02/19 00:04:24;;;;;;;;;;;;;;;12.95;47.20;99798.59;1018248;29;792;-68
2022/02/19 00:05:15;;;;;;;;;;;;;;;12.95;47.68;99809.28;1018272;29;1868;-65
2022/02/19 00:06:05;;;;;;;;;;;;;;;12.95;47.71;99825.31;1015041;29;706;-66
2022/02/19 00:06:56;;;;;;;;;;;;;;;12.93;48.15;99817.44;1014602;29;750;-66
2022/02/19 00:07:46;;;;;;;;;;;;;;;12.93;47.82;99813.91;1018324;29;802;-66
2022/02/19 00:08:36;;;;;;;;;;;;;;;12.95;47.58;99822.66;1018155;29;710;-65
2022/02/19 00:09:27;;;;;;;;;;;;;;;12.94;47.14;99826.31;1018258;29;773;-66
2022/02/19 00:10:17;;;;;;;;;;;;;;;12.94;47.51;99823.63;1018276;29;721;-66
2022/02/19 00:11:08;;;;;;;;;;;;;;;12.94;48.06;99824.47;1018123;29;839;-66
2022/02/19 00:11:59;;;;;;;;;;;;;;;12.94;47.52;99820.97;1021601;29;2282;-67
2022/02/19 00:12:49;;;;;;;;;;;;;;;12.93;47.30;99828.13;1020816;29;1784;-66
2022/02/19 00:13:40;;;;;;;;;;;;;;;12.93;47.49;99814.75;1021992;29;1910;-66
2022/02/19 00:14:30;;;;;;;;;;;;;;;12.94;47.39;99828.97;1022155;29;711;-66
2022/02/19 00:15:21;;;;;;;;;;;;;;;12.94;47.91;99837.00;1022053;29;982;-66
2022/02/19 00:16:11;;;;;;;;;;;;;;;12.93;47.92;99830.81;1022660;29;1165;-66
2022/02/19 00:17:03;;;;;;;;;;;;;;;12.93;47.95;99846.00;1022051;29;736;-66
2022/02/19 00:17:54;;;;;;;;;;;;;;;12.93;48.18;99851.34;1022720;29;705;-66
2022/02/19 00:18:44;;;;;;;;;;;;;;;12.91;47.94;99848.81;1022725;29;713;-66
2022/02/19 00:19:35;;;;;;;;;;;;;;;12.92;47.57;99841.63;1022075;29;916;-66
2022/02/19 00:20:25;;;;;;;;;;;;;;;12.93;47.22;99860.22;1018246;29;788;-67
2022/02/19 00:21:15;;;;;;;;;;;;;;;12.93;46.98;99843.34;1018179;29;775;-66
2022/02/19 00:22:06;;;;;;;;;;;;;;;12.93;47.59;99856.69;1014574;29;1865;-67
2022/02/19 00:22:56;;;;;;;;;;;;;;;12.93;48.21;99862.06;1017234;29;738;-67
2022/02/19 00:23:47;;;;;;;;;;;;;;;12.93;48.30;99867.41;1021463;29;944;-66
2022/02/19 00:24:37;;;;;;;;;;;;;;;12.93;47.96;99860.22;1018940;28;729;-67
2022/02/19 00:25:28;;;;;;;;;;;;;;;12.91;47.96;99864.00;1017888;29;826;-66
2022/02/19 00:26:18;;;;;;;;;;;;;;;12.91;47.32;99856.00;1021620;29;793;-65
2022/02/19 00:27:08;;;;;;;;;;;;;;;12.90;47.44;99862.34;1022081;29;712;-62
2022/02/19 00:27:59;;;;;;;;;;;;;;;12.89;47.46;99877.56;1022065;29;740;-63
2022/02/19 00:28:49;;;;;;;;;;;;;;;12.90;48.50;99878.41;1022125;29;787;-64
2022/02/19 00:29:40;;;;;;;;;;;;;;;12.87;48.34;99876.84;1022036;29;733;-64
2022/02/19 00:30:30;;;;;;;;;;;;;;;12.84;48.38;99872.59;1018175;29;940;-63
2022/02/19 00:31:21;;;;;;;;;;;;;;;12.85;47.40;99876.13;1020139;29;1603;-64
2022/02/19 00:32:11;;;;;;;;;;;;;;;12.86;47.82;99893.88;1018119;29;699;-63
2022/02/19 00:33:01;;;;;;;;;;;;;;;12.85;47.42;99893.03;1021216;29;1538;-63
2022/02/19 00:33:53;;;;;;;;;;;;;;;12.85;47.43;99885.00;1022008;29;1944;-64
2022/02/19 00:34:44;;;;;;;;;;;;;;;12.88;47.37;99907.09;1022107;29;726;-67
2022/02/19 00:35:34;;;;;;;;;;;;;;;12.88;47.52;99889.22;1021623;29;695;-66
2022/02/19 00:36:25;;;;;;;;;;;;;;;12.86;48.36;99904.56;1021444;29;801;-66
2022/02/19 00:37:15;;;;;;;;;;;;;;;12.84;47.86;99902.03;1021615;29;701;-66
2022/02/19 00:38:05;;;;;;;;;;;;;;;12.85;47.43;99919.75;1021436;29;831;-67
2022/02/19 00:38:56;;;;;;;;;;;;;;;12.84;47.59;99912.72;1021669;29;709;-67
2022/02/19 00:39:46;;;;;;;;;;;;;;;12.83;47.79;99937.75;1021479;29;740;-67
2022/02/19 00:40:37;;;;;;;;;;;;;;;12.83;47.32;99907.50;1017547;29;780;-65
2022/02/19 00:41:27;;;;;;;;;;;;;;;12.83;47.87;99926.22;1017694;29;775;-66
2022/02/19 00:42:18;;;;;;;;;;;;;;;12.86;47.57;99923.28;1018039;29;1767;-65
2022/02/19 00:43:08;;;;;;;;;;;;;;;12.84;48.09;99920.75;1017612;29;721;-64
2022/02/19 00:43:58;;;;;;;;;;;;;;;12.84;47.80;99919.88;1017942;29;1370;-64
2022/02/19 00:44:49;;;;;;;;;;;;;;;12.84;47.72;99928.75;1018682;29;974;-64
2022/02/19 00:45:39;;;;;;;;;;;;;;;12.85;48.13;99917.09;1018086;29;738;-63
2022/02/19 00:46:30;;;;;;;;;;;;;;;12.85;47.49;99925.09;1018058;29;841;-64
2022/02/19 00:47:20;;;;;;;;;;;;;;;12.88;47.54;99923.16;1020592;29;1791;-64
2022/02/19 00:48:11;;;;;;;;;;;;;;;12.85;48.52;99933.13;1021907;29;764;-64
2022/02/19 00:49:04;;;;;;;;;;;;;;;12.83;48.35;99928.91;1022067;29;860;-63
2022/02/19 00:49:54;;;;;;;;;;;;;;;12.82;47.86;99929.88;1022077;29;778;-64
2022/02/19 00:50:46;;;;;;;;;;;;;;;12.81;47.70;99945.06;1022016;29;808;-64
2022/02/19 00:51:36;;;;;;;;;;;;;;;12.80;47.59;99919.31;1022430;29;1751;-64
2022/02/19 00:52:26;;;;;;;;;;;;;;;12.81;47.50;99953.09;1020792;29;1474;-64
2022/02/19 00:53:17;;;;;;;;;;;;;;;12.80;48.25;99948.72;1022021;29;764;-63
2022/02/19 00:54:07;;;;;;;;;;;;;;;12.80;47.59;99946.06;1019042;28;749;-66
2022/02/19 00:54:58;;;;;;;;;;;;;;;12.81;47.36;99950.41;1017802;29;783;-64
2022/02/19 00:55:48;;;;;;;;;;;;;;;12.82;47.62;99957.47;1021531;29;783;-65
2022/02/19 00:56:39;;;;;;;;;;;;;;;12.83;47.36;99969.84;1021986;29;789;-64
2022/02/19 00:57:29;;;;;;;;;;;;;;;12.85;48.30;99972.38;1018925;29;1939;-65
2022/02/19 00:58:19;;;;;;;;;;;;;;;12.79;47.94;99992.47;1017903;29;811;-64
2022/02/19 00:59:10;;;;;;;;;;;;;;;12.78;47.66;99961.38;1017846;29;943;-64
2022/02/19 01:00:00;;;;;;;;;;;;;;;12.78;48.34;99969.41;1018749;29;707;-64
2022/02/19 01:00:51;;;;;;;;;;;;;;;12.77;47.66;99972.19;1018549;29;703;-64
2022/02/19 01:01:41;;;;;;;;;;;;;;;12.78;47.70;99968.56;1018885;29;1796;-64
2022/02/19 01:02:32;;;;;;;;;;;;;;;12.77;47.55;99972.19;1019837;29;1632;-64
2022/02/19 01:03:22;;;;;;;;;;;;;;;12.76;47.64;99990.06;1021850;29;857;-64
2022/02/19 01:04:12;;;;;;;;;;;;;;;12.74;47.61;99976.00;1022002;29;661;-64
2022/02/19 01:05:03;;;;;;;;;;;;;;;12.74;47.85;99985.84;1022000;29;678;-64
2022/02/19 01:05:53;;;;;;;;;;;;;;;12.73;48.30;99984.97;1022066;29;758;-66
2022/02/19 01:06:44;;;;;;;;;;;;;;;12.74;48.14;99989.34;1021920;29;800;-69
2022/02/19 01:07:34;;;;;;;;;;;;;;;12.75;48.52;99988.38;1018228;29;1779;-70
2022/02/19 01:08:24;;;;;;;;;;;;;;;12.74;47.72;99989.34;1018651;29;703;-69
2022/02/19 01:09:15;;;;;;;;;;;;;;;12.76;48.12;100005.25;1018552;29;843;-68
2022/02/19 01:10:07;;;;;;;;;;;;;;;12.75;47.83;99988.38;1018578;29;697;-68
2022/02/19 01:10:57;;;;;;;;;;;;;;;12.76;47.74;99995.41;1017921;29;731;-68
2022/02/19 01:11:48;;;;;;;;;;;;;;;12.76;47.56;99992.75;1019305;29;1810;-68
2022/02/19 01:12:38;;;;;;;;;;;;;;;12.76;48.18;99994.56;1019161;29;1727;-68
2022/02/19 01:13:28;;;;;;;;;;;;;;;12.76;47.63;100000.75;1017951;29;811;-70
2022/02/19 01:14:19;;;;;;;;;;;;;;;12.76;48.43;99989.22;1017967;29;965;-71
2022/02/19 01:15:11;;;;;;;;;;;;;;;12.76;47.37;100011.47;1018026;29;725;-69
2022/02/19 01:16:01;;;;;;;;;;;;;;;12.75;48.33;99996.41;1018421;29;823;-68
2022/02/19 01:16:52;;;;;;;;;;;;;;;12.76;47.98;99998.09;1017904;29;702;-69
2022/02/19 01:17:42;;;;;;;;;;;;;;;12.77;48.27;100002.47;1017982;29;790;-68
2022/02/19 01:18:32;;;;;;;;;;;;;;;12.79;48.10;100010.34;1018119;29;721;-68
2022/02/19 01:19:23;;;;;;;;;;;;;;;12.79;48.12;99999.66;1018738;29;1696;-68
2022/02/19 01:20:13;;;;;;;;;;;;;;;12.79;48.13;100010.34;1021896;29;779;-68
2022/02/19 01:21:04;;;;;;;;;;;;;;;12.79;48.47;100000.50;1021982;29;714;-67
2022/02/19 01:21:54;;;;;;;;;;;;;;;12.81;47.71;100013.75;1021672;29;1716;-67
2022/02/19 01:22:46;;;;;;;;;;;;;;;12.79;48.16;100013.03;1021192;29;1758;-66
2022/02/19 01:23:36;;;;;;;;;;;;;;;12.78;48.71;100012.19;1022333;29;737;-67
2022/02/19 01:24:27;;;;;;;;;;;;;;;12.77;48.50;100010.47;1021893;29;853;-68
2022/02/19 01:25:17;;;;;;;;;;;;;;;12.78;48.08;100020.19;1018745;28;694;-68
2022/02/19 01:26:07;;;;;;;;;;;;;;;12.79;48.77;100029.06;1017616;29;965;-69
2022/02/19 01:26:58;;;;;;;;;;;;;;;12.77;48.69;100028.34;1021290;29;694;-70
2022/02/19 01:27:48;;;;;;;;;;;;;;;12.76;48.42;100032.84;1017930;29;745;-71
2022/02/19 01:28:39;;;;;;;;;;;;;;;12.76;47.76;100027.50;1017393;29;766;-69
2022/02/19 01:29:29;;;;;;;;;;;;;;;12.77;48.55;100039.03;1017412;29;762;-69
2022/02/19 01:30:20;;;;;;;;;;;;;;;12.76;47.77;100021.31;1017321;29;739;-69
2022/02/19 01:31:10;;;;;;;;;;;;;;;12.76;48.30;100038.19;1017456;29;729;-69
2022/02/19 01:32:00;;;;;;;;;;;;;;;12.77;48.34;100041.72;1019822;29;1741;-68
2022/02/19 01:32:51;;;;;;;;;;;;;;;12.76;48.48;100037.34;1021136;29;1742;-68
2022/02/19 01:33:41;;;;;;;;;;;;;;;12.76;48.76;100037.34;1021871;29;1956;-68
2022/02/19 01:34:32;;;;;;;;;;;;;;;12.75;47.69;100031.16;1019227;29;1653;-69
2022/02/19 01:35:22;;;;;;;;;;;;;;;12.73;48.64;100037.59;1018140;29;733;-69
2022/02/19 01:36:12;;;;;;;;;;;;;;;12.70;47.82;100029.88;1018273;29;1723;-70
2022/02/19 01:37:03;;;;;;;;;;;;;;;12.71;48.17;100055.63;1017812;29;703;-69
2022/02/19 01:37:53;;;;;;;;;;;;;;;12.70;48.15;100049.44;1018423;29;715;-69
2022/02/19 01:38:44;;;;;;;;;;;;;;;12.72;48.18;100046.63;1017855;29;1043;-65
2022/02/19 01:39:34;;;;;;;;;;;;;;;12.71;47.82;100048.47;1017939;29;702;-65
2022/02/19 01:40:25;;;;;;;;;;;;;;;12.71;48.51;100056.47;1017964;29;765;-66
2022/02/19 01:41:15;;;;;;;;;;;;;;;12.72;48.36;100058.13;1017924;29;775;-65
2022/02/19 01:42:05;;;;;;;;;;;;;;;12.71;47.93;100051.13;1020384;29;1755;-66
2022/02/19 01:42:56;;;;;;;;;;;;;;;12.73;47.83;100059.00;1019999;29;1684;-66
2022/02/19 01:43:46;;;;;;;;;;;;;;;12.72;47.72;100055.47;1022829;28;697;-66
2022/02/19 01:44:37;;;;;;;;;;;;;;;12.72;48.17;100076.84;1022925;28;677;-66
2022/02/19 01:45:27;;;;;;;;;;;;;;;12.70;48.22;100081.50;1022861;28;808;-66
2022/02/19 01:46:18;;;;;;;;;;;;;;;12.71;48.04;100077.88;1022925;28;761;-66
2022/02/19 01:47:08;;;;;;;;;;;;;;;12.71;48.35;100069.00;1022735;28;739;-66
2022/02/19 01:47:58;;;;;;;;;;;;;;;12.70;48.34;100065.47;1018770;29;787;-66
2022/02/19 01:48:49;;;;;;;;;;;;;;;12.72;48.18;100076.84;1017297;29;790;-66
2022/02/19 01:49:39;;;;;;;;;;;;;;;12.69;48.44;100069.13;1020114;29;2020;-66
2022/02/19 01:50:30;;;;;;;;;;;;;;;12.69;47.78;100074.47;1021800;29;701;-66
2022/02/19 01:51:20;;;;;;;;;;;;;;;12.68;47.64;100088.81;1021669;29;802;-67
2022/02/19 01:52:11;;;;;;;;;;;;;;;12.70;47.88;100075.31;1021651;29;1772;-67
2022/02/19 01:53:01;;;;;;;;;;;;;;;12.70;47.86;100078.84;1020803;29;1505;-66
2022/02/19 01:53:51;;;;;;;;;;;;;;;12.71;47.93;100087.72;1021733;29;1882;-67
2022/02/19 01:54:42;;;;;;;;;;;;;;;12.70;47.78;100086.88;1021424;29;1732;-67
2022/02/19 01:55:33;;;;;;;;;;;;;;;12.68;48.70;100088.81;1021769;29;884;-67
2022/02/19 01:56:24;;;;;;;;;;;;;;;12.68;48.66;100088.81;1021932;29;1761;-67
2022/02/19 01:57:14;;;;;;;;;;;;;;;12.69;48.01;100106.56;1021734;29;1484;-68
2022/02/19 01:58:06;;;;;;;;;;;;;;;12.69;47.98;100095.00;1017887;29;661;-67
2022/02/19 01:58:56;;;;;;;;;;;;;;;12.69;48.12;100095.88;1017801;29;1047;-67
2022/02/19 01:59:46;;;;;;;;;;;;;;;12.70;47.74;100097.56;1018378;29;847;-68
2022/02/19 02:00:37;;;;;;;;;;;;;;;12.70;48.00;100092.22;1018450;29;694;-67
2022/02/19 02:01:27;;;;;;;;;;;;;;;12.69;48.02;100087.00;1018342;29;715;-67
2022/02/19 02:02:18;;;;;;;;;;;;;;;12.70;48.39;100092.22;1021765;29;1930;-67
2022/02/19 02:03:08;;;;;;;;;;;;;;;12.70;47.88;100102.91;1014555;29;1719;-65
2022/02/19 02:03:59;;;;;;;;;;;;;;;12.70;48.63;100116.28;1018551;29;891;-64
2022/02/19 02:04:49;;;;;;;;;;;;;;;12.69;48.71;100111.91;1022244;29;703;-65
2022/02/19 02:05:39;;;;;;;;;;;;;;;12.70;48.40;100129.63;1021550;29;1766;-65
2022/02/19 02:06:30;;;;;;;;;;;;;;;12.71;48.18;100125.97;1018732;29;748;-65
2022/02/19 02:07:20;;;;;;;;;;;;;;;12.69;48.38;100135.97;1017241;29;1791;-65
2022/02/19 02:08:11;;;;;;;;;;;;;;;12.69;48.58;100132.44;1021648;29;971;-65
2022/02/19 02:09:01;;;;;;;;;;;;;;;12.69;48.67;100129.75;1021810;29;738;-65
2022/02/19 02:09:52;;;;;;;;;;;;;;;12.68;47.65;100115.56;1021280;29;787;-65
2022/02/19 02:10:44;;;;;;;;;;;;;;;12.67;48.62;100148.59;1021615;29;701;-65
2022/02/19 02:11:35;;;;;;;;;;;;;;;12.65;48.14;100134.50;1021753;29;694;-65
2022/02/19 02:12:25;;;;;;;;;;;;;;;12.66;48.32;100119.31;1021341;29;1536;-67
2022/02/19 02:13:15;;;;;;;;;;;;;;;12.66;48.28;100135.38;1021217;29;731;-66
2022/02/19 02:14:06;;;;;;;;;;;;;;;12.64;48.74;100140.84;1021676;29;990;-67
2022/02/19 02:14:56;;;;;;;;;;;;;;;12.65;47.93;100134.50;1021738;29;767;-64
2022/02/19 02:15:47;;;;;;;;;;;;;;;12.65;48.36;100131.00;1021667;29;776;-65
2022/02/19 02:16:37;;;;;;;;;;;;;;;12.64;48.50;100140.84;1018526;28;786;-65
2022/02/19 02:17:28;;;;;;;;;;;;;;;12.66;48.25;100146.06;1016966;29;1817;-64
2022/02/19 02:18:18;;;;;;;;;;;;;;;12.66;48.39;100144.22;1020196;29;1751;-65
2022/02/19 02:19:08;;;;;;;;;;;;;;;12.66;48.20;100130.88;1017642;29;768;-65
2022/02/19 02:19:59;;;;;;;;;;;;;;;12.67;47.94;100142.41;1017689;29;746;-64
2022/02/19 02:20:50;;;;;;;;;;;;;;;12.65;47.83;100147.03;1014206;29;772;-66
2022/02/19 02:21:40;;;;;;;;;;;;;;;12.65;48.77;100150.56;1014141;29;772;-67
2022/02/19 02:22:30;;;;;;;;;;;;;;;12.65;48.56;100142.53;1018874;29;1819;-67
2022/02/19 02:23:21;;;;;;;;;;;;;;;12.64;48.37;100159.56;1017877;29;759;-65
2022/02/19 02:24:12;;;;;;;;;;;;;;;12.64;47.80;100167.56;1017149;29;781;-66
2022/02/19 02:25:02;;;;;;;;;;;;;;;12.64;48.09;100156.03;1016615;29;787;-66
2022/02/19 02:25:53;;;;;;;;;;;;;;;12.64;48.30;100166.72;1016571;29;759;-67
2022/02/19 02:26:43;;;;;;;;;;;;;;;12.64;48.72;100175.59;1017066;29;799;-67
2022/02/19 02:27:34;;;;;;;;;;;;;;;12.64;49.00;100177.41;1018224;29;1618;-67
2022/02/19 02:28:24;;;;;;;;;;;;;;;12.64;48.12;100175.59;1021626;29;754;-67
2022/02/19 02:29:14;;;;;;;;;;;;;;;12.63;48.59;100175.72;1021501;29;1438;-67
2022/02/19 02:30:05;;;;;;;;;;;;;;;12.61;48.64;100167.81;1021528;29;654;-66
2022/02/19 02:30:55;;;;;;;;;;;;;;;12.61;48.16;100167.81;1021506;29;935;-67
2022/02/19 02:31:46;;;;;;;;;;;;;;;12.62;48.59;100174.88;1021511;29;710;-67
2022/02/19 02:32:37;;;;;;;;;;;;;;;12.62;48.86;100172.19;1020848;29;1538;-66
2022/02/19 02:33:27;;;;;;;;;;;;;;;12.63;48.37;100175.72;1021636;29;847;-67
2022/02/19 02:34:21;;;;;;;;;;;;;;;12.63;48.19;100186.41;1021416;29;1430;-67
2022/02/19 02:35:11;;;;;;;;;;;;;;;12.62;48.15;100192.72;1017066;29;785;-66
2022/02/19 02:36:02;;;;;;;;;;;;;;;12.63;48.47;100178.38;1017787;29;832;-65
2022/02/19 02:36:52;;;;;;;;;;;;;;;12.62;48.08;100182.88;1017826;29;760;-66
2022/02/19 02:37:43;;;;;;;;;;;;;;;12.63;48.11;100184.59;1016873;29;724;-65
2022/02/19 02:38:33;;;;;;;;;;;;;;;12.61;48.21;100186.53;1016630;29;700;-65
2022/02/19 02:39:23;;;;;;;;;;;;;;;12.61;48.04;100178.50;1017244;29;782;-65
2022/02/19 02:40:14;;;;;;;;;;;;;;;12.61;48.59;100197.22;1016876;29;793;-66
2022/02/19 02:41:04;;;;;;;;;;;;;;;12.62;48.14;100192.72;1016619;29;1211;-66
2022/02/19 02:41:55;;;;;;;;;;;;;;;12.63;48.15;100194.44;1017620;29;924;-66
2022/02/19 02:42:45;;;;;;;;;;;;;;;12.61;48.45;100205.25;1020215;29;1798;-66
2022/02/19 02:43:35;;;;;;;;;;;;;;;12.64;48.49;100188.09;1021637;29;792;-65
2022/02/19 02:44:26;;;;;;;;;;;;;;;12.62;48.23;100201.59;1018148;28;1664;-66
2022/02/19 02:45:16;;;;;;;;;;;;;;;12.63;48.76;100207.78;1017105;29;1892;-66
2022/02/19 02:46:06;;;;;;;;;;;;;;;12.62;48.45;100198.06;1020385;29;894;-66
2022/02/19 02:46:57;;;;;;;;;;;;;;;12.62;48.32;100212.28;1021024;29;684;-66
2022/02/19 02:47:47;;;;;;;;;;;;;;;12.61;48.24;100223.97;1020997;29;777;-67
2022/02/19 02:48:38;;;;;;;;;;;;;;;12.60;48.53;100213.38;1020986;29;767;-67
2022/02/19 02:49:28;;;;;;;;;;;;;;;12.59;48.16;100207.19;1021001;29;851;-68
2022/02/19 02:50:18;;;;;;;;;;;;;;;12.59;48.40;100203.66;1021013;29;1678;-67
2022/02/19 02:51:09;;;;;;;;;;;;;;;12.59;47.93;100201.84;1021015;29;783;-67
2022/02/19 02:51:59;;;;;;;;;;;;;;;12.59;48.81;100201.84;1021076;29;791;-66
2022/02/19 02:52:50;;;;;;;;;;;;;;;12.58;48.58;100208.16;1018645;29;1549;-66
2022/02/19 02:53:40;;;;;;;;;;;;;;;12.57;48.20;100219.84;1021404;29;1960;-66
2022/02/19 02:54:31;;;;;;;;;;;;;;;12.58;48.68;100215.34;1020114;29;1727;-65
2022/02/19 02:55:21;;;;;;;;;;;;;;;12.59;48.59;100223.22;1017611;29;759;-66
2022/02/19 02:56:11;;;;;;;;;;;;;;;12.58;48.27;100210.84;1017506;29;742;-62
2022/02/19 02:57:02;;;;;;;;;;;;;;;12.60;48.69;100229.44;1017553;29;722;-63
2022/02/19 02:57:52;;;;;;;;;;;;;;;12.60;48.01;100224.06;1017731;29;750;-63
2022/02/19 02:58:43;;;;;;;;;;;;;;;12.60;48.19;100230.28;1017606;29;732;-64
2022/02/19 02:59:33;;;;;;;;;;;;;;;12.60;49.12;100219.59;1017587;29;783;-64
2022/02/19 03:00:24;;;;;;;;;;;;;;;12.57;48.64;100230.53;1020680;29;1781;-65
2022/02/19 03:01:14;;;;;;;;;;;;;;;12.58;48.07;100221.53;1021132;29;699;-64
2022/02/19 03:02:05;;;;;;;;;;;;;;;12.58;48.33;100231.38;1019437;29;1603;-64
2022/02/19 03:02:55;;;;;;;;;;;;;;;12.58;48.02;100234.03;1021458;29;1732;-64
2022/02/19 03:03:46;;;;;;;;;;;;;;;12.59;48.47;100241.09;1021620;29;806;-64
2022/02/19 03:04:36;;;;;;;;;;;;;;;12.60;48.02;100235.63;1020666;29;1698;-64
2022/02/19 03:05:27;;;;;;;;;;;;;;;12.61;48.83;100240.00;1017633;29;1015;-65
2022/02/19 03:06:17;;;;;;;;;;;;;;;12.60;47.84;100230.28;1017545;29;832;-63
2022/02/19 03:07:08;;;;;;;;;;;;;;;12.61;48.88;100241.81;1017602;29;712;-65
2022/02/19 03:07:58;;;;;;;;;;;;;;;12.61;48.67;100253.34;1017677;29;769;-63
2022/02/19 03:08:48;;;;;;;;;;;;;;;12.61;48.82;100253.34;1017549;29;714;-65
2022/02/19 03:09:39;;;;;;;;;;;;;;;12.59;48.36;100252.63;1017673;29;735;-64
2022/02/19 03:10:29;;;;;;;;;;;;;;;12.57;48.58;100251.91;1020669;29;1995;-64
2022/02/19 03:11:20;;;;;;;;;;;;;;;12.57;48.78;100245.72;1021020;29;741;-64
2022/02/19 03:12:10;;;;;;;;;;;;;;;12.58;48.35;100247.41;1017860;29;1452;-64
2022/02/19 03:13:01;;;;;;;;;;;;;;;12.58;48.24;100248.25;1018551;29;1886;-64
2022/02/19 03:13:51;;;;;;;;;;;;;;;12.57;48.12;100249.22;1017591;29;1956;-65
2022/02/19 03:14:42;;;;;;;;;;;;;;;12.54;48.50;100262.84;1017491;29;736;-64
2022/02/19 03:15:32;;;;;;;;;;;;;;;12.54;48.71;100252.16;1017665;29;696;-64
2022/02/19 03:16:22;;;;;;;;;;;;;;;12.55;48.76;100248.50;1017563;29;747;-65
2022/02/19 03:17:13;;;;;;;;;;;;;;;12.54;48.78;100268.19;1017551;29;785;-64
2022/02/19 03:18:03;;;;;;;;;;;;;;;12.56;48.95;100260.03;1017534;29;828;-64
2022/02/19 03:18:54;;;;;;;;;;;;;;;12.57;48.90;100257.25;1017469;29;732;-64
2022/02/19 03:19:45;;;;;;;;;;;;;;;12.58;48.17;100268.78;1017575;29;674;-63
2022/02/19 03:20:39;;;;;;;;;;;;;;;12.59;48.73;100270.50;1021633;29;1852;-64
2022/02/19 03:21:29;;;;;;;;;;;;;;;12.57;48.72;100267.94;1021661;28;766;-64
2022/02/19 03:22:19;;;;;;;;;;;;;;;12.57;48.35;100262.59;1013362;29;722;-63
2022/02/19 03:23:10;;;;;;;;;;;;;;;12.57;48.26;100272.44;1016761;29;1712;-64
2022/02/19 03:24:01;;;;;;;;;;;;;;;12.56;48.73;100282.28;1019081;29;737;-64
2022/02/19 03:24:51;;;;;;;;;;;;;;;12.54;49.03;100251.34;1021484;29;700;-64
2022/02/19 03:25:42;;;;;;;;;;;;;;;12.54;48.92;100288.75;1021535;29;703;-65
2022/02/19 03:26:32;;;;;;;;;;;;;;;12.54;48.85;100275.38;1021976;29;751;-64
2022/02/19 03:27:23;;;;;;;;;;;;;;;12.52;48.31;100284.38;1021436;29;908;-64
2022/02/19 03:28:13;;;;;;;;;;;;;;;12.53;48.50;100282.56;1021507;29;767;-64
2022/02/19 03:29:04;;;;;;;;;;;;;;;12.53;48.72;100282.56;1021377;29;969;-64
2022/02/19 03:29:55;;;;;;;;;;;;;;;12.52;49.02;100299.56;1022071;29;696;-64
2022/02/19 03:30:45;;;;;;;;;;;;;;;12.51;48.62;100284.50;1020567;29;1486;-65
2022/02/19 03:31:35;;;;;;;;;;;;;;;12.51;48.25;100295.19;1017539;29;828;-67
2022/02/19 03:32:26;;;;;;;;;;;;;;;12.52;48.49;100302.25;1017566;29;751;-66
2022/02/19 03:33:16;;;;;;;;;;;;;;;12.51;48.13;100308.56;1021865;29;1672;-66
2022/02/19 03:34:07;;;;;;;;;;;;;;;12.50;49.04;100291.66;1021511;29;1895;-67
2022/02/19 03:34:57;;;;;;;;;;;;;;;12.52;48.65;100299.56;1021542;29;672;-67
2022/02/19 03:35:47;;;;;;;;;;;;;;;12.52;48.32;100307.59;1021506;29;870;-66
2022/02/19 03:36:38;;;;;;;;;;;;;;;12.52;48.10;100296.91;1021488;29;777;-65
2022/02/19 03:37:28;;;;;;;;;;;;;;;12.51;48.75;100306.72;1021378;29;918;-65
2022/02/19 03:38:19;;;;;;;;;;;;;;;12.51;48.65;100328.13;1021391;29;693;-65
2022/02/19 03:39:09;;;;;;;;;;;;;;;12.49;48.54;100314.03;1021506;29;711;-65
2022/02/19 03:40:06;;;;;;;;;;;;;;;12.50;48.89;100318.41;1020873;29;822;-64
2022/02/19 03:40:56;;;;;;;;;;;;;;;12.50;48.09;100317.53;1022960;28;1585;-65
2022/02/19 03:41:46;;;;;;;;;;;;;;;12.49;48.74;100315.84;1014487;29;1807;-65
2022/02/19 03:42:37;;;;;;;;;;;;;;;12.49;48.79;100330.06;1013217;29;698;-65
2022/02/19 03:43:27;;;;;;;;;;;;;;;12.49;49.03;100329.22;1017423;29;707;-65
2022/02/19 03:44:18;;;;;;;;;;;;;;;12.48;48.09;100319.50;1018081;29;1821;-65
2022/02/19 03:45:08;;;;;;;;;;;;;;;12.48;48.60;100323.00;1017473;29;787;-65
2022/02/19 03:45:58;;;;;;;;;;;;;;;12.48;48.18;100311.47;1017464;29;863;-65
2022/02/19 03:46:49;;;;;;;;;;;;;;;12.47;48.35;100332.00;1017562;29;683;-65
2022/02/19 03:47:41;;;;;;;;;;;;;;;12.46;48.64;100345.50;1017641;29;910;-65
2022/02/19 03:48:31;;;;;;;;;;;;;;;12.46;48.68;100324.97;1018103;29;779;-66
2022/02/19 03:49:22;;;;;;;;;;;;;;;12.48;48.74;100331.03;1017643;29;690;-65
2022/02/19 03:50:17;;;;;;;;;;;;;;;12.47;48.12;100324.00;1017355;29;772;-66
2022/02/19 03:51:08;;;;;;;;;;;;;;;12.47;48.02;100326.66;1021024;29;794;-66
2022/02/19 03:51:58;;;;;;;;;;;;;;;12.48;48.52;100336.38;1021669;29;1754;-65
2022/02/19 03:52:48;;;;;;;;;;;;;;;12.47;49.03;100326.66;1017409;29;1761;-67
2022/02/19 03:53:39;;;;;;;;;;;;;;;12.48;48.69;100343.53;1018735;29;1954;-66
2022/02/19 03:54:29;;;;;;;;;;;;;;;12.48;48.84;100322.16;1017996;29;1768;-66
2022/02/19 03:55:20;;;;;;;;;;;;;;;12.45;48.73;100339.28;1020055;29;1997;-68
2022/02/19 03:56:10;;;;;;;;;;;;;;;12.46;48.25;100338.31;1020152;29;1846;-67
2022/02/19 03:57:01;;;;;;;;;;;;;;;12.46;48.24;100351.69;1020492;29;651;-67
2022/02/19 03:57:51;;;;;;;;;;;;;;;12.47;48.05;100352.53;1020281;29;652;-67
2022/02/19 03:58:41;;;;;;;;;;;;;;;12.47;48.38;100355.22;1020426;29;947;-66
2022/02/19 03:59:32;;;;;;;;;;;;;;;12.43;48.42;100351.94;1016397;29;776;-68
2022/02/19 04:00:22;;;;;;;;;;;;;;;12.44;48.56;100350.94;1019924;29;1854;-68
2022/02/19 04:01:13;;;;;;;;;;;;;;;12.42;48.79;100360.91;1020540;29;686;-67
2022/02/19 04:02:03;;;;;;;;;;;;;;;12.42;48.01;100363.59;1020022;29;1852;-67
2022/02/19 04:02:53;;;;;;;;;;;;;;;12.41;48.67;100366.38;1017439;29;746;-67
2022/02/19 04:03:44;;;;;;;;;;;;;;;12.41;47.91;100369.03;1017490;29;779;-67
2022/02/19 04:04:34;;;;;;;;;;;;;;;12.42;48.17;100366.25;1016906;29;935;-68
2022/02/19 04:05:25;;;;;;;;;;;;;;;12.41;48.37;100369.03;1012865;29;782;-67
2022/02/19 04:06:15;;;;;;;;;;;;;;;12.42;48.42;100354.72;1013258;29;726;-67
2022/02/19 04:07:05;;;;;;;;;;;;;;;12.42;48.60;100376.09;1016968;29;889;-67
2022/02/19 04:07:56;;;;;;;;;;;;;;;12.42;48.09;100366.25;1017478;29;737;-67
2022/02/19 04:08:46;;;;;;;;;;;;;;;12.42;48.53;100382.28;1020173;29;1717;-68
2022/02/19 04:09:37;;;;;;;;;;;;;;;12.42;48.00;100376.94;1016661;29;709;-67
2022/02/19 04:10:27;;;;;;;;;;;;;;;12.44;48.12;100390.19;1015772;29;1624;-67
2022/02/19 04:11:18;;;;;;;;;;;;;;;12.41;48.47;100380.59;1017895;29;831;-67
2022/02/19 04:12:09;;;;;;;;;;;;;;;12.42;48.30;100376.09;1020688;29;1759;-67
2022/02/19 04:13:00;;;;;;;;;;;;;;;12.41;48.61;100399.28;1022557;28;748;-67
2022/02/19 04:13:51;;;;;;;;;;;;;;;12.43;48.19;100389.34;1021386;29;1966;-68
2022/02/19 04:14:41;;;;;;;;;;;;;;;12.41;47.90;100409.97;1021371;29;764;-67
2022/02/19 04:15:31;;;;;;;;;;;;;;;12.39;48.80;100408.41;1021493;29;798;-67
2022/02/19 04:16:22;;;;;;;;;;;;;;;12.38;48.37;100396.00;1021385;29;1221;-67
2022/02/19 04:17:12;;;;;;;;;;;;;;;12.40;48.08;100394.06;1021377;29;813;-69
2022/02/19 04:18:03;;;;;;;;;;;;;;;12.40;48.66;100410.94;1021257;29;713;-67
2022/02/19 04:18:53;;;;;;;;;;;;;;;12.40;48.63;100391.41;1020619;29;2162;-67
2022/02/19 04:19:44;;;;;;;;;;;;;;;12.39;48.15;100411.91;1020763;29;1627;-68
2022/02/19 04:20:35;;;;;;;;;;;;;;;12.39;48.13;100413.75;1020027;29;1545;-68
2022/02/19 04:21:25;;;;;;;;;;;;;;;12.39;48.55;100411.06;1017389;29;813;-68
2022/02/19 04:22:16;;;;;;;;;;;;;;;12.38;47.77;100407.53;1018104;29;820;-68
2022/02/19 04:23:06;;;;;;;;;;;;;;;12.38;48.11;100414.72;1018083;29;688;-67
2022/02/19 04:23:57;;;;;;;;;;;;;;;12.38;47.82;100412.03;1017946;29;693;-68
2022/02/19 04:24:47;;;;;;;;;;;;;;;12.38;48.63;100422.72;1017965;29;698;-68
2022/02/19 04:25:37;;;;;;;;;;;;;;;12.38;47.79;100412.91;1017931;29;788;-69
2022/02/19 04:26:28;;;;;;;;;;;;;;;12.39;47.78;100424.44;1018045;29;822;-69